createdAt,value
2023-06-28T00:00:21.821Z,15.18
2023-06-28T00:01:18.908Z,15.37
2023-06-28T00:02:15.614Z,15.39
2023-06-28T00:03:14.668Z,15.29
2023-06-28T00:04:11.287Z,15.22
2023-06-28T00:05:10.934Z,15.18
2023-06-28T00:06:07.560Z,15.11
2023-06-28T00:07:04.755Z,15.17
2023-06-28T00:08:01.764Z,15.26
2023-06-28T00:08:59.380Z,15.23
2023-06-28T00:09:55.860Z,15.27
2023-06-28T00:10:52.578Z,15.18
2023-06-28T00:11:49.090Z,15.17
2023-06-28T00:12:45.601Z,15.32
2023-06-28T00:13:42.179Z,15.21
2023-06-28T00:14:38.696Z,15.01
2023-06-28T00:15:35.271Z,14.90
2023-06-28T00:16:31.735Z,14.88
2023-06-28T00:17:31.380Z,15.01
2023-06-28T00:18:30.693Z,14.96
2023-06-28T00:19:29.966Z,14.93
2023-06-28T00:20:26.439Z,14.87
2023-06-28T00:21:24.108Z,14.83
2023-06-28T00:22:20.666Z,14.79
2023-06-28T00:23:17.295Z,14.76
2023-06-28T00:24:13.966Z,14.75
2023-06-28T00:25:10.521Z,14.71
2023-06-28T00:26:07.031Z,14.67
2023-06-28T00:27:03.680Z,14.69
2023-06-28T00:28:00.203Z,14.71
2023-06-28T00:28:56.903Z,14.70
2023-06-28T00:29:53.494Z,14.73
2023-06-28T00:30:50.006Z,14.79
2023-06-28T00:31:46.595Z,14.86
2023-06-28T00:32:43.274Z,14.82
2023-06-28T00:33:39.990Z,14.94
2023-06-28T00:34:36.706Z,13.89
2023-06-28T00:35:33.327Z,14.92
2023-06-28T00:36:29.876Z,14.90
2023-06-28T00:37:26.922Z,14.92
2023-06-28T00:38:23.910Z,15.08
2023-06-28T00:39:20.404Z,15.00
2023-06-28T00:40:16.921Z,15.01
2023-06-28T00:41:13.469Z,14.43
2023-06-28T00:42:10.126Z,14.90
2023-06-28T00:43:06.628Z,14.82
2023-06-28T00:44:03.802Z,14.75
2023-06-28T00:45:00.663Z,14.68
2023-06-28T00:45:57.188Z,14.62
2023-06-28T00:46:54.101Z,14.57
2023-06-28T00:47:50.728Z,14.60
2023-06-28T00:48:47.521Z,14.63
2023-06-28T00:49:44.207Z,14.62
2023-06-28T00:50:41.264Z,14.60
2023-06-28T00:51:38.570Z,14.60
2023-06-28T00:52:35.159Z,14.59
2023-06-28T00:53:31.759Z,14.56
2023-06-28T00:54:28.459Z,14.57
2023-06-28T00:55:25.038Z,14.59
2023-06-28T00:56:21.563Z,14.60
2023-06-28T00:57:18.662Z,14.59
2023-06-28T00:58:15.443Z,14.58
2023-06-28T00:59:12.485Z,14.59
2023-06-28T01:00:13.601Z,14.61
2023-06-28T01:01:11.832Z,14.62
2023-06-28T01:02:08.531Z,14.68
2023-06-28T01:03:05.580Z,14.75
2023-06-28T01:04:04.105Z,14.86
2023-06-28T01:05:00.728Z,14.92
2023-06-28T01:05:58.863Z,14.98
2023-06-28T01:07:00.914Z,14.90
2023-06-28T01:07:57.895Z,14.78
2023-06-28T01:08:54.585Z,14.85
2023-06-28T01:09:51.310Z,14.89
2023-06-28T01:10:48.516Z,14.90
2023-06-28T01:11:45.005Z,14.81
2023-06-28T01:12:42.198Z,14.75
2023-06-28T01:13:39.179Z,14.67
2023-06-28T01:14:35.813Z,14.68
2023-06-28T01:15:32.379Z,14.63
2023-06-28T01:16:28.992Z,14.63
2023-06-28T01:17:25.529Z,14.62
2023-06-28T01:18:22.699Z,14.64
2023-06-28T01:19:19.362Z,14.70
2023-06-28T01:20:16.280Z,15.01
2023-06-28T01:21:15.652Z,15.06
2023-06-28T01:22:13.858Z,14.93
2023-06-28T01:23:10.496Z,14.88
2023-06-28T01:24:11.784Z,14.79
2023-06-28T01:25:10.549Z,14.69
2023-06-28T01:26:08.766Z,14.76
2023-06-28T01:27:06.610Z,14.79
2023-06-28T01:28:03.778Z,14.73
2023-06-28T01:29:00.323Z,14.64
2023-06-28T01:29:58.271Z,14.59
2023-06-28T01:30:55.176Z,14.59
2023-06-28T01:31:56.234Z,14.61
2023-06-28T01:32:53.543Z,14.70
2023-06-28T01:33:50.153Z,14.69
2023-06-28T01:34:46.693Z,14.60
2023-06-28T01:35:43.228Z,14.49
2023-06-28T01:36:39.749Z,14.59
2023-06-28T01:37:36.789Z,14.69
2023-06-28T01:38:33.418Z,14.79
2023-06-28T01:39:32.024Z,14.81
2023-06-28T01:40:29.002Z,14.76
2023-06-28T01:41:27.688Z,14.76
2023-06-28T01:42:24.327Z,14.81
2023-06-28T01:43:21.591Z,14.69
2023-06-28T01:44:18.510Z,14.53
2023-06-28T01:45:15.068Z,14.58
2023-06-28T01:46:11.976Z,14.73
2023-06-28T01:47:08.665Z,14.70
2023-06-28T01:48:05.513Z,14.63
2023-06-28T01:49:02.526Z,14.63
2023-06-28T01:49:59.402Z,14.65
2023-06-28T01:50:56.000Z,14.68
2023-06-28T01:51:54.148Z,14.56
2023-06-28T01:52:50.763Z,14.46
2023-06-28T01:53:47.398Z,14.47
2023-06-28T01:54:44.312Z,14.36
2023-06-28T01:55:40.862Z,14.20
2023-06-28T01:56:37.464Z,14.18
2023-06-28T01:57:33.940Z,14.21
2023-06-28T01:58:30.464Z,14.25
2023-06-28T01:59:27.100Z,14.29
2023-06-28T02:00:23.786Z,14.32
2023-06-28T02:01:20.303Z,14.37
2023-06-28T02:02:17.516Z,14.36
2023-06-28T02:03:14.290Z,14.47
2023-06-28T02:04:10.857Z,14.34
2023-06-28T02:05:07.582Z,14.39
2023-06-28T02:06:04.155Z,14.42
2023-06-28T02:07:00.764Z,14.35
2023-06-28T02:07:57.334Z,14.33
2023-06-28T02:08:53.884Z,14.35
2023-06-28T02:09:50.433Z,14.36
2023-06-28T02:10:46.922Z,14.39
2023-06-28T02:11:43.412Z,14.32
2023-06-28T02:12:39.998Z,14.37
2023-06-28T02:13:36.648Z,14.47
2023-06-28T02:14:33.151Z,14.42
2023-06-28T02:15:29.638Z,14.43
2023-06-28T02:16:28.890Z,14.35
2023-06-28T02:17:25.616Z,14.34
2023-06-28T02:18:25.981Z,14.38
2023-06-28T02:19:22.638Z,14.30
2023-06-28T02:20:20.325Z,14.24
2023-06-28T02:21:17.456Z,14.27
2023-06-28T02:22:13.994Z,14.34
2023-06-28T02:23:11.309Z,14.45
2023-06-28T02:24:09.317Z,14.63
2023-06-28T02:25:07.447Z,14.56
2023-06-28T02:26:03.953Z,14.36
2023-06-28T02:27:00.546Z,14.33
2023-06-28T02:27:57.127Z,14.34
2023-06-28T02:28:54.302Z,14.36
2023-06-28T02:29:50.947Z,14.35
2023-06-28T02:30:49.360Z,14.31
2023-06-28T02:31:46.613Z,14.24
2023-06-28T02:32:44.355Z,14.16
2023-06-28T02:33:41.005Z,14.13
2023-06-28T02:34:37.492Z,14.17
2023-06-28T02:35:33.992Z,14.13
2023-06-28T02:36:30.524Z,14.08
2023-06-28T02:37:27.028Z,14.17
2023-06-28T02:38:23.551Z,14.19
2023-06-28T02:39:20.062Z,14.25
2023-06-28T02:40:16.559Z,14.20
2023-06-28T02:41:13.323Z,14.24
2023-06-28T02:42:09.866Z,14.33
2023-06-28T02:43:06.440Z,14.33
2023-06-28T02:44:02.918Z,14.31
2023-06-28T02:44:59.418Z,14.34
2023-06-28T02:45:55.937Z,14.31
2023-06-28T02:46:52.465Z,14.18
2023-06-28T02:47:49.147Z,14.29
2023-06-28T02:48:45.702Z,14.44
2023-06-28T02:49:42.452Z,14.16
2023-06-28T02:50:38.923Z,14.06
2023-06-28T02:51:35.432Z,13.99
2023-06-28T02:52:31.957Z,13.99
2023-06-28T02:53:28.495Z,14.00
2023-06-28T02:54:25.013Z,14.08
2023-06-28T02:55:21.701Z,14.12
2023-06-28T02:56:18.278Z,14.17
2023-06-28T02:57:14.936Z,14.26
2023-06-28T02:58:11.546Z,14.21
2023-06-28T02:59:08.078Z,14.20
2023-06-28T03:00:04.808Z,14.21
2023-06-28T03:01:01.547Z,14.23
2023-06-28T03:01:58.174Z,14.34
2023-06-28T03:02:54.944Z,14.33
2023-06-28T03:03:51.573Z,14.62
2023-06-28T03:04:48.231Z,14.83
2023-06-28T03:05:44.766Z,14.67
2023-06-28T03:06:41.518Z,14.61
2023-06-28T03:07:38.275Z,14.45
2023-06-28T03:08:35.080Z,14.48
2023-06-28T03:09:31.628Z,14.48
2023-06-28T03:10:28.147Z,14.45
2023-06-28T03:11:24.643Z,14.42
2023-06-28T03:12:21.364Z,14.47
2023-06-28T03:13:17.901Z,14.46
2023-06-28T03:14:14.450Z,14.52
2023-06-28T03:15:11.130Z,14.48
2023-06-28T03:16:09.270Z,14.58
2023-06-28T03:17:06.597Z,14.63
2023-06-28T03:18:03.399Z,14.57
2023-06-28T03:18:59.994Z,14.61
2023-06-28T03:19:56.569Z,14.58
2023-06-28T03:20:53.282Z,14.45
2023-06-28T03:21:49.833Z,14.35
2023-06-28T03:22:46.324Z,14.34
2023-06-28T03:23:43.077Z,14.33
2023-06-28T03:24:39.710Z,14.24
2023-06-28T03:25:36.386Z,14.14
2023-06-28T03:26:32.983Z,14.06
2023-06-28T03:27:29.527Z,13.91
2023-06-28T03:28:26.153Z,13.83
2023-06-28T03:29:22.685Z,13.93
2023-06-28T03:30:19.268Z,13.93
2023-06-28T03:31:15.780Z,13.94
2023-06-28T03:32:12.527Z,14.02
2023-06-28T03:33:09.051Z,14.02
2023-06-28T03:34:05.819Z,14.05
2023-06-28T03:35:02.302Z,14.13
2023-06-28T03:35:58.827Z,14.17
2023-06-28T03:37:03.926Z,14.25
2023-06-28T03:38:01.744Z,14.38
2023-06-28T03:38:58.432Z,14.41
2023-06-28T03:39:54.927Z,14.49
2023-06-28T03:40:51.472Z,14.54
2023-06-28T03:41:48.047Z,14.69
2023-06-28T03:42:44.595Z,14.72
2023-06-28T03:43:41.358Z,14.75
2023-06-28T03:44:37.886Z,14.68
2023-06-28T03:45:35.030Z,14.68
2023-06-28T03:46:31.612Z,14.67
2023-06-28T03:47:28.409Z,14.72
2023-06-28T03:48:24.953Z,14.75
2023-06-28T03:49:21.513Z,14.60
2023-06-28T03:50:18.106Z,14.46
2023-06-28T03:51:14.606Z,14.47
2023-06-28T03:52:11.352Z,14.53
2023-06-28T03:53:07.990Z,14.53
2023-06-28T03:54:04.722Z,14.56
2023-06-28T03:55:01.220Z,14.55
2023-06-28T03:55:58.830Z,14.56
2023-06-28T03:56:55.430Z,14.56
2023-06-28T03:57:52.136Z,14.50
2023-06-28T03:58:50.876Z,14.50
2023-06-28T03:59:47.362Z,14.47
2023-06-28T04:00:44.147Z,14.43
2023-06-28T04:01:40.909Z,14.38
2023-06-28T04:02:37.656Z,14.39
2023-06-28T04:03:34.403Z,14.42
2023-06-28T04:04:31.337Z,14.41
2023-06-28T04:05:28.013Z,14.47
2023-06-28T04:06:24.591Z,14.53
2023-06-28T04:07:26.176Z,14.51
2023-06-28T04:08:27.770Z,14.55
2023-06-28T04:09:24.374Z,14.56
2023-06-28T04:10:21.484Z,14.57
2023-06-28T04:11:18.006Z,14.62
2023-06-28T04:12:14.519Z,14.65
2023-06-28T04:13:11.422Z,14.71
2023-06-28T04:14:08.131Z,14.78
2023-06-28T04:15:07.576Z,14.87
2023-06-28T04:16:04.249Z,14.97
2023-06-28T04:17:01.078Z,15.04
2023-06-28T04:17:57.741Z,15.28
2023-06-28T04:18:54.474Z,15.36
2023-06-28T04:19:50.971Z,15.38
2023-06-28T04:20:47.545Z,15.40
2023-06-28T04:21:44.050Z,15.59
2023-06-28T04:22:40.686Z,15.63
2023-06-28T04:23:39.401Z,15.60
2023-06-28T04:24:36.014Z,15.56
2023-06-28T04:25:32.589Z,15.69
2023-06-28T04:26:29.221Z,15.77
2023-06-28T04:27:26.698Z,15.61
2023-06-28T04:28:23.257Z,15.87
2023-06-28T04:29:21.529Z,16.25
2023-06-28T04:30:19.600Z,16.32
2023-06-28T04:31:16.219Z,16.33
2023-06-28T04:32:26.371Z,16.26
2023-06-28T04:33:23.823Z,16.09
2023-06-28T04:34:20.950Z,16.10
2023-06-28T04:35:18.552Z,16.21
2023-06-28T04:36:15.146Z,16.31
2023-06-28T04:37:15.908Z,16.29
2023-06-28T04:38:14.440Z,16.37
2023-06-28T04:39:11.053Z,16.30
2023-06-28T04:40:09.071Z,16.44
2023-06-28T04:41:06.823Z,16.53
2023-06-28T04:42:04.406Z,16.57
2023-06-28T04:43:01.000Z,16.60
2023-06-28T04:43:58.843Z,16.63
2023-06-28T04:45:00.717Z,16.63
2023-06-28T04:45:58.043Z,16.64
2023-06-28T04:46:54.600Z,16.58
2023-06-28T04:47:51.144Z,16.57
2023-06-28T04:48:47.673Z,16.61
2023-06-28T04:49:46.539Z,16.72
2023-06-28T04:50:43.511Z,16.81
2023-06-28T04:51:40.165Z,16.82
2023-06-28T04:52:36.658Z,16.89
2023-06-28T04:53:33.187Z,17.07
2023-06-28T04:54:29.807Z,17.15
2023-06-28T04:55:26.410Z,17.19
2023-06-28T04:56:22.980Z,17.24
2023-06-28T04:57:21.929Z,17.50
2023-06-28T04:58:19.104Z,17.39
2023-06-28T04:59:15.587Z,17.55
2023-06-28T05:00:12.820Z,17.51
2023-06-28T05:01:09.833Z,17.55
2023-06-28T05:02:06.648Z,17.74
2023-06-28T05:03:03.470Z,17.73
2023-06-28T05:04:00.486Z,17.65
2023-06-28T05:04:57.092Z,17.73
2023-06-28T05:05:54.786Z,17.80
2023-06-28T05:06:54.784Z,17.70
2023-06-28T05:07:52.575Z,17.54
2023-06-28T05:08:49.190Z,17.49
2023-06-28T05:09:46.079Z,17.54
2023-06-28T05:10:42.872Z,17.48
2023-06-28T05:11:39.519Z,17.54
2023-06-28T05:12:36.202Z,17.81
2023-06-28T05:13:32.781Z,18.08
2023-06-28T05:14:30.203Z,18.08
2023-06-28T05:15:27.239Z,17.92
2023-06-28T05:16:23.803Z,18.07
2023-06-28T05:17:20.318Z,18.16
2023-06-28T05:18:16.914Z,18.23
2023-06-28T05:19:13.388Z,18.26
2023-06-28T05:20:10.325Z,18.24
2023-06-28T05:21:06.875Z,18.14
2023-06-28T05:22:03.781Z,18.04
2023-06-28T05:23:13.981Z,18.14
2023-06-28T05:24:10.617Z,18.10
2023-06-28T05:25:07.244Z,18.35
2023-06-28T05:26:06.343Z,18.00
2023-06-28T05:27:02.923Z,18.37
2023-06-28T05:27:59.425Z,18.12
2023-06-28T05:28:55.932Z,18.10
2023-06-28T05:29:52.489Z,18.04
2023-06-28T05:30:49.008Z,17.92
2023-06-28T05:31:45.617Z,17.90
2023-06-28T05:32:42.243Z,18.07
2023-06-28T05:33:42.006Z,18.16
2023-06-28T05:34:38.561Z,18.32
2023-06-28T05:35:35.658Z,18.29
2023-06-28T05:36:32.856Z,18.14
2023-06-28T05:37:29.755Z,17.99
2023-06-28T05:38:26.314Z,18.31
2023-06-28T05:39:23.122Z,18.55
2023-06-28T05:40:19.666Z,18.67
2023-06-28T05:41:19.212Z,18.79
2023-06-28T05:42:15.848Z,18.83
2023-06-28T05:43:12.392Z,18.65
2023-06-28T05:44:08.955Z,18.48
2023-06-28T05:45:07.146Z,18.50
2023-06-28T05:46:03.694Z,18.75
2023-06-28T05:47:00.273Z,18.93
2023-06-28T05:47:58.599Z,18.93
2023-06-28T05:48:55.289Z,18.80
2023-06-28T05:49:51.942Z,18.73
2023-06-28T05:50:48.947Z,18.23
2023-06-28T05:51:46.858Z,18.65
2023-06-28T05:52:46.172Z,18.75
2023-06-28T05:53:43.117Z,18.54
2023-06-28T05:54:39.782Z,18.55
2023-06-28T05:55:36.337Z,18.70
2023-06-28T05:56:33.090Z,18.40
2023-06-28T05:57:29.626Z,18.23
2023-06-28T05:58:26.176Z,18.73
2023-06-28T05:59:22.798Z,18.86
2023-06-28T06:00:20.312Z,18.94
2023-06-28T06:01:16.952Z,18.96
2023-06-28T06:02:13.549Z,18.91
2023-06-28T06:03:10.184Z,18.84
2023-06-28T06:04:06.998Z,18.91
2023-06-28T06:05:04.773Z,19.17
2023-06-28T06:06:01.840Z,19.47
2023-06-28T06:06:58.418Z,19.15
2023-06-28T06:07:54.984Z,19.05
2023-06-28T06:08:51.469Z,19.26
2023-06-28T06:09:48.103Z,19.13
2023-06-28T06:10:44.771Z,19.29
2023-06-28T06:11:41.937Z,18.55
2023-06-28T06:12:38.764Z,18.50
2023-06-28T06:13:35.650Z,18.57
2023-06-28T06:14:33.661Z,18.93
2023-06-28T06:15:30.256Z,18.82
2023-06-28T06:16:26.793Z,18.77
2023-06-28T06:17:23.312Z,19.06
2023-06-28T06:18:19.838Z,19.49
2023-06-28T06:19:16.403Z,19.05
2023-06-28T06:20:16.314Z,19.30
2023-06-28T06:21:12.860Z,19.31
2023-06-28T06:22:09.352Z,19.06
2023-06-28T06:23:05.974Z,19.30
2023-06-28T06:24:02.979Z,19.61
2023-06-28T06:24:59.478Z,19.83
2023-06-28T06:25:56.072Z,19.75
2023-06-28T06:26:52.646Z,19.60
2023-06-28T06:27:49.210Z,19.75
2023-06-28T06:28:46.095Z,19.94
2023-06-28T06:29:42.656Z,20.28
2023-06-28T06:30:40.421Z,20.08
2023-06-28T06:31:38.266Z,20.15
2023-06-28T06:32:34.891Z,20.46
2023-06-28T06:33:31.577Z,20.37
2023-06-28T06:34:28.121Z,20.27
2023-06-28T06:35:25.241Z,20.28
2023-06-28T06:36:21.757Z,20.69
2023-06-28T06:37:18.266Z,21.06
2023-06-28T06:38:14.852Z,21.05
2023-06-28T06:39:11.392Z,21.00
2023-06-28T06:40:08.511Z,21.12
2023-06-28T06:41:05.216Z,20.79
2023-06-28T06:42:01.832Z,20.52
2023-06-28T06:42:58.337Z,20.51
2023-06-28T06:43:54.862Z,20.48
2023-06-28T06:44:51.331Z,20.48
2023-06-28T06:45:48.072Z,20.37
2023-06-28T06:46:44.840Z,20.60
2023-06-28T06:47:41.366Z,20.82
2023-06-28T06:48:38.931Z,20.59
2023-06-28T06:49:35.501Z,20.48
2023-06-28T06:50:32.201Z,20.98
2023-06-28T06:51:28.814Z,20.47
2023-06-28T06:52:25.292Z,20.76
2023-06-28T06:53:21.958Z,20.89
2023-06-28T06:54:18.491Z,21.52
2023-06-28T06:55:15.068Z,21.60
2023-06-28T06:56:11.665Z,21.08
2023-06-28T06:57:08.192Z,21.12
2023-06-28T06:58:05.253Z,21.16
2023-06-28T06:59:02.265Z,21.02
2023-06-28T06:59:58.828Z,21.39
2023-06-28T07:00:55.399Z,21.45
2023-06-28T07:01:52.609Z,21.75
2023-06-28T07:02:49.390Z,21.87
2023-06-28T07:03:45.991Z,21.81
2023-06-28T07:04:42.608Z,21.56
2023-06-28T07:05:39.327Z,21.39
2023-06-28T07:06:37.065Z,21.95
2023-06-28T07:07:33.782Z,21.44
2023-06-28T07:08:30.521Z,21.16
2023-06-28T07:09:28.169Z,21.68
2023-06-28T07:10:24.804Z,21.55
2023-06-28T07:11:21.595Z,20.88
2023-06-28T07:12:18.198Z,21.19
2023-06-28T07:13:15.751Z,21.65
2023-06-28T07:14:12.226Z,21.65
2023-06-28T07:15:09.143Z,21.75
2023-06-28T07:16:05.644Z,21.59
2023-06-28T07:17:02.156Z,21.79
2023-06-28T07:17:58.858Z,21.75
2023-06-28T07:18:56.096Z,21.91
2023-06-28T07:19:52.963Z,22.06
2023-06-28T07:20:49.499Z,22.13
2023-06-28T07:21:46.136Z,21.88
2023-06-28T07:22:42.695Z,21.99
2023-06-28T07:23:39.238Z,22.02
2023-06-28T07:24:35.726Z,21.39
2023-06-28T07:25:33.533Z,21.34
2023-06-28T07:26:30.120Z,21.33
2023-06-28T07:27:26.794Z,21.82
2023-06-28T07:28:23.271Z,22.39
2023-06-28T07:29:19.893Z,22.30
2023-06-28T07:30:17.566Z,22.13
2023-06-28T07:31:14.184Z,22.30
2023-06-28T07:32:10.776Z,22.71
2023-06-28T07:33:07.530Z,22.37
2023-06-28T07:34:06.088Z,22.08
2023-06-28T07:35:02.790Z,22.16
2023-06-28T07:35:59.610Z,22.37
2023-06-28T07:36:56.120Z,22.80
2023-06-28T07:37:54.173Z,22.82
2023-06-28T07:38:51.515Z,22.95
2023-06-28T07:39:48.339Z,22.32
2023-06-28T07:40:45.056Z,22.58
2023-06-28T07:41:41.616Z,22.65
2023-06-28T07:42:38.694Z,22.95
2023-06-28T07:43:35.276Z,23.41
2023-06-28T07:44:31.770Z,22.90
2023-06-28T07:45:29.103Z,23.46
2023-06-28T07:46:25.714Z,22.92
2023-06-28T07:47:22.521Z,22.70
2023-06-28T07:48:19.676Z,22.92
2023-06-28T07:49:16.187Z,23.40
2023-06-28T07:50:12.866Z,23.82
2023-06-28T07:51:09.557Z,23.39
2023-06-28T07:52:06.833Z,23.78
2023-06-28T07:53:03.810Z,23.15
2023-06-28T07:54:00.407Z,23.01
2023-06-28T07:54:56.949Z,22.90
2023-06-28T07:55:53.520Z,23.03
2023-06-28T07:56:50.335Z,23.28
2023-06-28T07:57:46.864Z,22.95
2023-06-28T07:58:43.489Z,22.98
2023-06-28T07:59:40.087Z,22.49
2023-06-28T08:00:36.649Z,22.99
2023-06-28T08:01:34.947Z,23.56
2023-06-28T08:02:31.605Z,23.61
2023-06-28T08:03:28.176Z,23.58
2023-06-28T08:04:24.777Z,23.26
2023-06-28T08:05:21.475Z,23.23
2023-06-28T08:06:18.060Z,23.39
2023-06-28T08:07:14.653Z,23.32
2023-06-28T08:08:11.282Z,23.25
2023-06-28T08:09:07.874Z,23.27
2023-06-28T08:10:04.701Z,23.48
2023-06-28T08:11:01.308Z,23.26
2023-06-28T08:11:57.842Z,22.67
2023-06-28T08:12:54.386Z,23.04
2023-06-28T08:13:51.946Z,22.68
2023-06-28T08:14:48.507Z,22.53
2023-06-28T08:15:45.547Z,22.36
2023-06-28T08:16:42.535Z,22.46
2023-06-28T08:17:39.061Z,22.48
2023-06-28T08:18:36.168Z,22.40
2023-06-28T08:19:32.717Z,22.58
2023-06-28T08:20:29.705Z,22.45
2023-06-28T08:21:26.299Z,22.83
2023-06-28T08:22:22.841Z,23.32
2023-06-28T08:23:19.898Z,23.66
2023-06-28T08:24:18.090Z,23.75
2023-06-28T08:25:14.657Z,23.82
2023-06-28T08:26:11.169Z,23.56
2023-06-28T08:27:08.127Z,23.83
2023-06-28T08:28:07.381Z,23.28
2023-06-28T08:29:04.585Z,23.30
2023-06-28T08:30:01.158Z,22.80
2023-06-28T08:30:57.720Z,22.99
2023-06-28T08:31:54.281Z,22.97
2023-06-28T08:32:50.793Z,22.08
2023-06-28T08:33:48.869Z,22.43
2023-06-28T08:34:45.577Z,23.28
2023-06-28T08:35:42.331Z,23.57
2023-06-28T08:36:39.108Z,23.88
2023-06-28T08:37:35.918Z,24.10
2023-06-28T08:38:32.449Z,23.75
2023-06-28T08:39:29.043Z,23.74
2023-06-28T08:40:29.074Z,23.68
2023-06-28T08:41:25.786Z,23.08
2023-06-28T08:42:22.620Z,23.32
2023-06-28T08:43:20.508Z,23.46
2023-06-28T08:44:20.498Z,23.67
2023-06-28T08:45:17.361Z,23.71
2023-06-28T08:46:14.044Z,23.90
2023-06-28T08:47:11.312Z,24.17
2023-06-28T08:48:20.305Z,23.95
2023-06-28T08:49:25.294Z,24.07
2023-06-28T08:50:22.580Z,24.45
2023-06-28T08:51:19.273Z,24.51
2023-06-28T08:52:16.184Z,24.33
2023-06-28T08:53:14.531Z,23.42
2023-06-28T08:54:13.037Z,23.14
2023-06-28T08:55:09.798Z,23.35
2023-06-28T08:56:06.680Z,23.39
2023-06-28T08:57:12.336Z,22.83
2023-06-28T08:58:11.196Z,23.45
2023-06-28T08:59:08.452Z,24.02
2023-06-28T09:00:07.355Z,23.58
2023-06-28T09:01:04.050Z,23.90
2023-06-28T09:02:02.439Z,23.59
2023-06-28T09:02:59.403Z,24.09
2023-06-28T09:03:56.820Z,24.85
2023-06-28T09:04:53.834Z,24.34
2023-06-28T09:05:51.751Z,24.49
2023-06-28T09:06:48.424Z,24.74
2023-06-28T09:07:46.523Z,24.59
2023-06-28T09:08:44.100Z,23.84
2023-06-28T09:09:42.051Z,23.48
2023-06-28T09:10:40.125Z,23.91
2023-06-28T09:11:37.498Z,24.70
2023-06-28T09:12:34.599Z,24.48
2023-06-28T09:13:31.384Z,24.72
2023-06-28T09:14:28.112Z,24.41
2023-06-28T09:15:24.694Z,24.91
2023-06-28T09:16:23.528Z,23.48
2023-06-28T09:17:22.367Z,23.88
2023-06-28T09:18:20.692Z,23.89
2023-06-28T09:19:17.217Z,24.10
2023-06-28T09:20:20.567Z,24.30
2023-06-28T09:21:27.013Z,24.17
2023-06-28T09:22:23.494Z,25.12
2023-06-28T09:23:27.391Z,24.93
2023-06-28T09:24:26.064Z,24.49
2023-06-28T09:25:22.777Z,23.70
2023-06-28T09:26:19.340Z,24.17
2023-06-28T09:27:16.620Z,24.63
2023-06-28T09:28:13.465Z,24.94
2023-06-28T09:29:11.729Z,24.67
2023-06-28T09:30:09.088Z,24.22
2023-06-28T09:31:08.524Z,24.67
2023-06-28T09:32:06.487Z,23.98
2023-06-28T09:33:06.315Z,24.04
2023-06-28T09:34:02.903Z,24.16
2023-06-28T09:34:59.395Z,24.96
2023-06-28T09:35:59.566Z,24.38
2023-06-28T09:36:57.220Z,24.00
2023-06-28T09:37:55.539Z,24.39
2023-06-28T09:38:52.171Z,25.34
2023-06-28T09:39:49.580Z,25.15
2023-06-28T09:40:46.416Z,25.14
2023-06-28T09:41:43.914Z,24.14
2023-06-28T09:42:45.199Z,24.48
2023-06-28T09:43:42.270Z,24.32
2023-06-28T09:44:38.836Z,24.06
2023-06-28T09:45:39.059Z,24.90
2023-06-28T09:46:36.285Z,25.07
2023-06-28T09:47:33.233Z,25.19
2023-06-28T09:48:36.859Z,26.07
2023-06-28T09:49:33.389Z,26.07
2023-06-28T09:50:38.025Z,25.76
2023-06-28T09:51:34.591Z,25.84
2023-06-28T09:52:35.990Z,25.73
2023-06-28T09:53:33.550Z,25.89
2023-06-28T09:54:30.882Z,25.77
2023-06-28T09:55:27.419Z,25.88
2023-06-28T09:56:35.179Z,25.98
2023-06-28T09:57:33.116Z,25.63
2023-06-28T09:58:31.248Z,25.24
2023-06-28T09:59:35.534Z,25.17
2023-06-28T10:00:33.147Z,25.23
2023-06-28T10:01:30.271Z,25.46
2023-06-28T10:02:28.300Z,25.50
2023-06-28T10:03:25.708Z,25.39
2023-06-28T10:04:22.935Z,25.66
2023-06-28T10:05:19.804Z,24.97
2023-06-28T10:06:16.394Z,25.57
2023-06-28T10:07:13.795Z,26.06
2023-06-28T10:08:11.545Z,26.23
2023-06-28T10:09:08.398Z,25.63
2023-06-28T10:10:05.494Z,25.69
2023-06-28T10:11:03.312Z,25.83
2023-06-28T10:12:01.494Z,26.09
2023-06-28T10:12:59.403Z,25.71
2023-06-28T10:13:56.707Z,26.21
2023-06-28T10:14:59.566Z,26.57
2023-06-28T10:16:02.607Z,25.80
2023-06-28T10:17:00.577Z,24.93
2023-06-28T10:17:57.150Z,25.59
2023-06-28T10:18:54.270Z,26.03
2023-06-28T10:19:50.949Z,24.86
2023-06-28T10:20:48.565Z,24.75
2023-06-28T10:21:45.431Z,25.26
2023-06-28T10:22:42.287Z,25.09
2023-06-28T10:23:40.384Z,25.53
2023-06-28T10:24:37.565Z,25.51
2023-06-28T10:25:34.162Z,25.63
2023-06-28T10:26:31.665Z,26.09
2023-06-28T10:27:28.937Z,26.30
2023-06-28T10:28:28.550Z,25.67
2023-06-28T10:29:25.165Z,25.27
2023-06-28T10:30:22.312Z,24.55
2023-06-28T10:31:19.243Z,24.89
2023-06-28T10:32:16.167Z,24.34
2023-06-28T10:33:18.942Z,25.00
2023-06-28T10:34:15.959Z,24.81
2023-06-28T10:35:12.749Z,23.49
2023-06-28T10:36:09.300Z,23.96
2023-06-28T10:37:06.167Z,23.87
2023-06-28T10:38:03.081Z,24.12
2023-06-28T10:38:59.634Z,24.62
2023-06-28T10:39:56.326Z,23.62
2023-06-28T10:40:53.135Z,23.28
2023-06-28T10:41:58.911Z,23.71
2023-06-28T10:42:55.550Z,23.64
2023-06-28T10:44:02.715Z,23.66
2023-06-28T10:44:59.302Z,24.03
2023-06-28T10:45:55.858Z,24.42
2023-06-28T10:47:08.622Z,24.05
2023-06-28T10:48:05.604Z,23.17
2023-06-28T10:49:04.637Z,23.82
2023-06-28T10:50:15.926Z,23.55
2023-06-28T10:51:14.600Z,24.19
2023-06-28T10:52:14.860Z,23.26
2023-06-28T10:53:22.163Z,23.87
2023-06-28T10:54:18.734Z,23.28
2023-06-28T10:55:21.124Z,23.04
2023-06-28T10:56:19.569Z,22.26
2023-06-28T10:57:16.135Z,22.71
2023-06-28T10:58:12.912Z,23.25
2023-06-28T10:59:09.546Z,23.30
2023-06-28T11:00:12.648Z,23.01
2023-06-28T11:01:10.582Z,23.57
2023-06-28T11:02:07.222Z,23.98
2023-06-28T11:03:06.945Z,23.50
2023-06-28T11:04:19.159Z,23.58
2023-06-28T11:05:35.831Z,23.35
2023-06-28T11:06:32.401Z,23.78
2023-06-28T11:07:30.288Z,23.41
2023-06-28T11:08:38.543Z,23.46
2023-06-28T11:09:35.456Z,23.00
2023-06-28T11:10:39.058Z,23.57
2023-06-28T11:11:36.603Z,22.88
2023-06-28T11:12:33.205Z,22.75
2023-06-28T11:13:35.465Z,21.85
2023-06-28T11:14:32.821Z,21.96
2023-06-28T11:15:29.733Z,21.84
2023-06-28T11:16:26.281Z,22.09
2023-06-28T11:17:23.196Z,22.44
2023-06-28T11:18:20.354Z,22.70
2023-06-28T11:19:19.553Z,22.70
2023-06-28T11:20:17.395Z,22.65
2023-06-28T11:21:16.353Z,22.28
2023-06-28T11:22:13.043Z,22.32
2023-06-28T11:23:09.743Z,22.08
2023-06-28T11:24:06.342Z,21.42
2023-06-28T11:25:02.839Z,21.38
2023-06-28T11:26:01.442Z,21.01
2023-06-28T11:26:58.864Z,20.66
2023-06-28T11:27:57.614Z,20.80
2023-06-28T11:28:57.438Z,21.08
2023-06-28T11:29:55.085Z,21.43
2023-06-28T11:30:52.860Z,20.83
2023-06-28T11:31:54.038Z,20.31
2023-06-28T11:32:50.646Z,20.29
2023-06-28T11:33:48.479Z,20.23
2023-06-28T11:34:45.108Z,19.96
2023-06-28T11:35:42.187Z,20.19
2023-06-28T11:36:39.790Z,20.63
2023-06-28T11:37:36.626Z,20.73
2023-06-28T11:38:33.745Z,20.63
2023-06-28T11:39:30.401Z,20.23
2023-06-28T11:40:27.555Z,19.96
2023-06-28T11:41:24.172Z,20.20
2023-06-28T11:42:21.038Z,19.96
2023-06-28T11:43:20.523Z,20.09
2023-06-28T11:44:17.140Z,19.85
2023-06-28T11:45:19.661Z,20.05
2023-06-28T11:46:20.328Z,19.89
2023-06-28T11:47:20.623Z,19.80
2023-06-28T11:48:19.038Z,19.76
2023-06-28T11:49:16.805Z,19.47
2023-06-28T11:50:13.450Z,19.57
2023-06-28T11:51:09.962Z,19.82
2023-06-28T11:52:06.945Z,20.32
2023-06-28T11:53:03.541Z,20.26
2023-06-28T11:54:00.222Z,20.36
2023-06-28T11:54:58.795Z,20.50
2023-06-28T11:55:55.947Z,20.40
2023-06-28T11:56:52.471Z,20.24
2023-06-28T11:57:49.069Z,19.98
2023-06-28T11:58:45.592Z,19.99
2023-06-28T11:59:50.279Z,20.42
2023-06-28T12:00:47.215Z,20.33
2023-06-28T12:01:44.631Z,20.44
2023-06-28T12:02:48.718Z,20.46
2023-06-28T12:03:45.438Z,19.17
2023-06-28T12:04:54.853Z,19.52
2023-06-28T12:05:54.336Z,19.82
2023-06-28T12:06:51.148Z,19.75
2023-06-28T12:07:48.172Z,20.16
2023-06-28T12:08:44.946Z,20.03
2023-06-28T12:09:41.725Z,20.30
2023-06-28T12:10:38.716Z,20.27
2023-06-28T12:11:35.320Z,19.96
2023-06-28T12:12:36.105Z,19.99
2023-06-28T12:13:32.817Z,20.75
2023-06-28T12:14:31.680Z,20.94
2023-06-28T12:15:28.423Z,20.75
2023-06-28T12:16:26.068Z,20.18
2023-06-28T12:17:22.763Z,19.82
2023-06-28T12:18:19.341Z,20.06
2023-06-28T12:19:17.409Z,19.60
2023-06-28T12:20:14.854Z,19.94